createdAt,value
2022-08-04T00:00:21.926Z,23.99
2022-08-04T00:02:56.875Z,23.99
2022-08-04T00:05:38.289Z,23.99
2022-08-04T00:08:20.845Z,23.95
2022-08-04T00:10:58.629Z,23.88
2022-08-04T00:13:27.857Z,23.82
2022-08-04T00:15:59.271Z,23.73
2022-08-04T00:18:39.736Z,23.65
2022-08-04T00:21:10.178Z,23.57
2022-08-04T00:24:11.490Z,23.48
2022-08-04T00:26:33.265Z,23.40
2022-08-04T00:29:01.163Z,23.33
2022-08-04T00:31:53.715Z,23.21
2022-08-04T00:34:15.229Z,23.10
2022-08-04T00:36:44.209Z,23.08
2022-08-04T00:39:19.723Z,22.96
2022-08-04T00:41:57.267Z,23.01
2022-08-04T00:44:31.329Z,22.99
2022-08-04T00:47:19.126Z,22.98
2022-08-04T00:49:48.754Z,22.98
2022-08-04T00:52:32.185Z,22.96
2022-08-04T00:55:09.306Z,22.96
2022-08-04T00:57:47.448Z,22.96
2022-08-04T01:00:15.587Z,22.94
2022-08-04T01:02:53.670Z,22.96
2022-08-04T01:05:47.852Z,22.88
2022-08-04T01:08:44.477Z,22.92
2022-08-04T01:11:56.425Z,22.90
2022-08-04T01:14:52.718Z,22.82
2022-08-04T01:17:36.013Z,22.89
2022-08-04T01:20:09.359Z,22.87
2022-08-04T01:22:57.974Z,22.85
2022-08-04T01:25:30.147Z,22.85
2022-08-04T01:28:15.918Z,22.86
2022-08-04T01:30:50.167Z,22.85
2022-08-04T01:33:20.190Z,22.74
2022-08-04T01:35:59.871Z,22.87
2022-08-04T01:38:37.603Z,22.64
2022-08-04T01:41:07.748Z,22.86
2022-08-04T01:43:42.376Z,22.86
2022-08-04T01:46:14.660Z,22.84
2022-08-04T01:48:44.504Z,22.70
2022-08-04T01:51:11.505Z,22.84
2022-08-04T01:53:40.430Z,22.62
2022-08-04T01:56:08.743Z,22.84
2022-08-04T01:58:37.460Z,22.85
2022-08-04T02:01:12.717Z,22.84
2022-08-04T02:04:21.182Z,22.84
2022-08-04T02:06:40.742Z,22.83
2022-08-04T02:09:07.204Z,22.85
2022-08-04T02:11:34.184Z,22.84
2022-08-04T02:14:41.256Z,22.83
2022-08-04T02:17:15.130Z,22.82
2022-08-04T02:19:58.391Z,22.82
2022-08-04T02:22:27.262Z,22.74
2022-08-04T02:25:10.732Z,22.76
2022-08-04T02:27:59.276Z,22.73
2022-08-04T02:30:34.369Z,22.70
2022-08-04T02:33:04.492Z,22.63
2022-08-04T02:35:38.944Z,22.62
2022-08-04T02:38:12.836Z,22.58
2022-08-04T02:40:41.473Z,22.55
2022-08-04T02:43:10.431Z,22.42
2022-08-04T02:45:38.220Z,22.44
2022-08-04T02:48:28.628Z,22.42
2022-08-04T02:50:55.808Z,22.38
2022-08-04T02:53:23.110Z,22.33
2022-08-04T02:55:53.383Z,22.29
2022-08-04T02:58:26.148Z,22.27
2022-08-04T03:00:52.741Z,22.24
2022-08-04T03:03:31.337Z,22.21
2022-08-04T03:06:13.216Z,22.17
2022-08-04T03:09:01.845Z,22.11
2022-08-04T03:11:52.170Z,22.07
2022-08-04T03:14:36.454Z,22.03
2022-08-04T03:17:21.170Z,22.00
2022-08-04T03:20:04.128Z,22.02
2022-08-04T03:23:12.517Z,21.97
2022-08-04T03:26:19.718Z,21.95
2022-08-04T03:29:11.071Z,21.92
2022-08-04T03:31:55.580Z,21.85
2022-08-04T03:34:37.295Z,21.89
2022-08-04T03:37:41.367Z,21.87
2022-08-04T03:40:45.571Z,21.69
2022-08-04T03:43:57.850Z,21.83
2022-08-04T03:46:52.993Z,21.78
2022-08-04T03:49:44.108Z,21.83
2022-08-04T03:52:54.223Z,21.82
2022-08-04T03:55:26.987Z,21.82
2022-08-04T03:58:17.840Z,21.83
2022-08-04T04:01:04.105Z,21.77
2022-08-04T04:03:59.535Z,21.71
2022-08-04T04:06:35.314Z,21.83
2022-08-04T04:09:20.836Z,21.83
2022-08-04T04:12:17.445Z,21.81
2022-08-04T04:15:31.050Z,21.84
2022-08-04T04:18:16.202Z,21.84
2022-08-04T04:21:10.679Z,21.89
2022-08-04T04:24:13.960Z,21.91
2022-08-04T04:26:58.242Z,22.00
2022-08-04T04:30:07.681Z,22.06
2022-08-04T04:33:09.868Z,22.14
2022-08-04T04:36:03.392Z,22.19
2022-08-04T04:38:57.854Z,22.21
2022-08-04T04:41:46.431Z,22.26
2022-08-04T04:44:12.882Z,22.35
2022-08-04T04:46:53.740Z,22.42
2022-08-04T04:49:22.869Z,22.51
2022-08-04T04:51:55.677Z,22.61
2022-08-04T04:54:22.221Z,22.74
2022-08-04T04:56:53.653Z,22.83
2022-08-04T04:59:32.875Z,22.91
2022-08-04T05:02:37.308Z,23.09
2022-08-04T05:05:36.033Z,23.23
2022-08-04T05:08:43.182Z,23.76
2022-08-04T05:11:19.263Z,24.39
2022-08-04T05:14:34.916Z,24.45
2022-08-04T05:16:45.881Z,25.82
2022-08-04T05:19:44.666Z,25.61
2022-08-04T05:22:22.654Z,25.58
2022-08-04T05:24:54.366Z,25.25
2022-08-04T05:27:39.708Z,24.72
2022-08-04T05:30:11.916Z,24.45
2022-08-04T05:32:46.937Z,24.23
2022-08-04T05:35:49.834Z,24.20
2022-08-04T05:38:20.283Z,24.16
2022-08-04T05:40:48.223Z,24.28
2022-08-04T05:43:18.165Z,24.53
2022-08-04T05:45:48.376Z,24.44
2022-08-04T05:48:16.689Z,24.39
2022-08-04T05:50:45.406Z,24.39
2022-08-04T05:53:14.845Z,24.28
2022-08-04T05:55:58.181Z,24.52
2022-08-04T05:58:31.673Z,24.77
2022-08-04T06:01:00.952Z,24.64
2022-08-04T06:03:30.159Z,24.50
2022-08-04T06:05:58.172Z,24.68
2022-08-04T06:08:26.775Z,24.72
2022-08-04T06:10:55.256Z,24.71
2022-08-04T06:13:48.455Z,24.75
2022-08-04T06:16:29.183Z,24.78
2022-08-04T06:20:03.367Z,24.86
2022-08-04T06:21:56.601Z,24.91
2022-08-04T06:24:26.351Z,24.86
2022-08-04T06:26:53.993Z,24.95
2022-08-04T06:29:40.773Z,25.07
2022-08-04T06:32:33.741Z,25.12
2022-08-04T06:35:06.792Z,25.27
2022-08-04T06:37:42.895Z,25.39
2022-08-04T06:40:31.541Z,25.60
2022-08-04T06:43:04.985Z,25.97
2022-08-04T06:45:34.825Z,26.99
2022-08-04T06:48:02.598Z,28.16
2022-08-04T06:51:32.148Z,29.44
2022-08-04T06:53:17.849Z,30.47
2022-08-04T06:55:50.249Z,30.33
2022-08-04T06:58:19.064Z,30.47
2022-08-04T07:00:49.379Z,30.91
2022-08-04T07:03:18.115Z,31.02
2022-08-04T07:05:51.266Z,30.59
2022-08-04T07:08:18.588Z,30.84
2022-08-04T07:10:46.339Z,31.58
2022-08-04T07:13:13.520Z,31.07
2022-08-04T07:15:45.278Z,30.56
2022-08-04T07:18:11.938Z,30.31
2022-08-04T07:20:45.972Z,30.42
2022-08-04T07:23:17.675Z,31.41
2022-08-04T07:25:59.802Z,32.41
2022-08-04T07:28:37.068Z,34.12
2022-08-04T07:31:05.375Z,34.33
2022-08-04T07:33:32.534Z,34.98
2022-08-04T07:36:09.786Z,35.54
2022-08-04T07:38:50.721Z,36.00
2022-08-04T07:41:40.631Z,34.66
2022-08-04T07:44:09.333Z,34.90
2022-08-04T07:46:39.207Z,36.26
2022-08-04T07:49:09.789Z,37.62
2022-08-04T07:51:39.762Z,36.77
2022-08-04T07:54:11.155Z,36.14
2022-08-04T07:56:42.061Z,36.39
2022-08-04T07:59:09.311Z,37.20
2022-08-04T08:01:37.056Z,36.22
2022-08-04T08:04:09.660Z,37.18
2022-08-04T08:06:43.216Z,37.37
2022-08-04T08:09:15.555Z,37.57
2022-08-04T08:12:36.636Z,38.09
2022-08-04T08:14:35.602Z,37.96
2022-08-04T08:17:03.288Z,37.78
2022-08-04T08:19:34.633Z,37.47
2022-08-04T08:22:02.282Z,37.97
2022-08-04T08:24:36.082Z,36.76
2022-08-04T08:27:04.743Z,37.09
2022-08-04T08:29:34.608Z,37.64
2022-08-04T08:32:07.766Z,37.94
2022-08-04T08:34:34.788Z,37.82
2022-08-04T08:37:21.442Z,36.89
2022-08-04T08:39:59.078Z,36.01
2022-08-04T08:42:37.871Z,35.73
2022-08-04T08:45:31.405Z,36.45
2022-08-04T08:48:22.073Z,35.21
2022-08-04T08:50:55.318Z,36.09
2022-08-04T08:53:34.246Z,37.37
2022-08-04T08:56:30.952Z,37.72
2022-08-04T08:59:16.795Z,37.30
2022-08-04T09:01:56.322Z,36.72
2022-08-04T09:04:31.997Z,36.02
2022-08-04T09:07:11.329Z,35.56
2022-08-04T09:10:02.221Z,35.82
2022-08-04T09:12:38.641Z,35.78
2022-08-04T09:15:18.877Z,34.75
2022-08-04T09:18:00.832Z,34.06
2022-08-04T09:20:27.342Z,34.20
2022-08-04T09:23:08.701Z,33.77
2022-08-04T09:25:46.949Z,33.39
2022-08-04T09:28:50.737Z,33.24
2022-08-04T09:31:18.627Z,32.83
2022-08-04T09:33:46.175Z,32.64
2022-08-04T09:36:28.529Z,32.47
2022-08-04T09:39:07.600Z,32.39
2022-08-04T09:41:48.195Z,32.31
2022-08-04T09:44:58.771Z,32.12
2022-08-04T09:47:56.659Z,31.90
2022-08-04T09:50:41.123Z,31.67
2022-08-04T09:53:43.215Z,31.44
2022-08-04T09:56:20.703Z,31.12
2022-08-04T09:59:33.785Z,30.70
2022-08-04T10:02:07.698Z,30.40
2022-08-04T10:04:35.999Z,30.16
2022-08-04T10:07:27.117Z,29.90
2022-08-04T10:10:12.486Z,29.54
2022-08-04T10:12:56.495Z,29.31
2022-08-04T10:15:25.980Z,28.99
2022-08-04T10:18:17.495Z,28.67
2022-08-04T10:21:10.237Z,28.39
2022-08-04T10:24:00.363Z,28.12
2022-08-04T10:26:41.570Z,27.96
2022-08-04T10:29:40.286Z,27.72
2022-08-04T10:32:30.074Z,27.47
2022-08-04T10:34:56.638Z,27.35
2022-08-04T10:37:59.051Z,27.25
2022-08-04T10:40:38.108Z,27.19
2022-08-04T10:43:21.033Z,27.15
2022-08-04T10:45:57.965Z,27.07
2022-08-04T10:48:34.623Z,27.05
2022-08-04T10:51:18.342Z,26.98
2022-08-04T10:53:51.848Z,26.92
2022-08-04T10:56:45.168Z,26.91
2022-08-04T10:59:18.897Z,26.82
2022-08-04T11:02:02.768Z,26.87
2022-08-04T11:04:30.649Z,27.02
2022-08-04T11:07:00.382Z,27.07
2022-08-04T11:09:30.444Z,26.90
2022-08-04T11:12:10.528Z,27.25
2022-08-04T11:14:45.289Z,27.20
2022-08-04T11:17:19.393Z,27.20
2022-08-04T11:20:32.187Z,27.19
2022-08-04T11:23:15.612Z,27.09
2022-08-04T11:25:59.149Z,27.00
2022-08-04T11:28:39.599Z,26.91
2022-08-04T11:31:17.378Z,26.87
2022-08-04T11:34:03.389Z,26.77
2022-08-04T11:36:49.880Z,26.74
2022-08-04T11:39:43.635Z,26.75
2022-08-04T11:42:27.589Z,26.65
2022-08-04T11:45:06.438Z,26.82
2022-08-04T11:47:39.890Z,26.98
2022-08-04T11:50:22.822Z,27.36
2022-08-04T11:52:52.952Z,27.47
2022-08-04T11:55:23.132Z,27.90
2022-08-04T11:57:54.419Z,28.07
2022-08-04T12:00:22.482Z,28.01
2022-08-04T12:02:52.247Z,27.89
2022-08-04T12:05:37.008Z,27.89
2022-08-04T12:08:36.226Z,27.93
2022-08-04T12:11:21.533Z,28.06
2022-08-04T12:14:12.805Z,28.24
2022-08-04T12:16:51.663Z,28.25
2022-08-04T12:19:31.154Z,28.37
2022-08-04T12:22:18.436Z,28.36
2022-08-04T12:25:06.738Z,28.27
2022-08-04T12:27:41.924Z,28.22
2022-08-04T12:30:59.533Z,28.33
2022-08-04T12:33:03.815Z,28.64
2022-08-04T12:35:36.581Z,28.69
2022-08-04T12:38:06.631Z,28.63
2022-08-04T12:40:49.558Z,28.73
2022-08-04T12:43:47.140Z,28.60
2022-08-04T12:46:22.613Z,28.65
2022-08-04T12:48:50.316Z,28.72
2022-08-04T12:52:06.820Z,28.98
2022-08-04T12:54:08.061Z,29.36
2022-08-04T12:56:35.798Z,29.67
2022-08-04T12:59:13.228Z,29.87
2022-08-04T13:02:10.105Z,29.99
2022-08-04T13:04:29.619Z,30.19
2022-08-04T13:07:15.401Z,30.19
2022-08-04T13:09:43.135Z,30.05
2022-08-04T13:12:20.952Z,30.03
2022-08-04T13:14:50.764Z,30.03
2022-08-04T13:17:17.715Z,29.94
2022-08-04T13:19:53.049Z,29.94
2022-08-04T13:22:26.868Z,30.32
2022-08-04T13:27:48.367Z,30.76
2022-08-04T13:30:22.950Z,30.95
2022-08-04T13:30:24.310Z,30.56
2022-08-04T13:32:55.727Z,30.90
2022-08-04T13:35:30.580Z,30.39
2022-08-04T13:38:17.013Z,30.23
2022-08-04T13:40:44.649Z,30.17
2022-08-04T13:44:16.492Z,30.39
2022-08-04T13:46:36.959Z,30.26
2022-08-04T13:52:01.963Z,30.27
2022-08-04T13:54:43.492Z,30.34
2022-08-04T13:57:15.860Z,30.26
2022-08-04T13:59:46.058Z,30.25
2022-08-04T14:02:28.372Z,30.25
2022-08-04T14:05:01.878Z,30.30
2022-08-04T14:07:30.704Z,30.30
2022-08-04T14:10:03.477Z,30.25
2022-08-04T14:12:38.086Z,30.23
2022-08-04T14:16:01.374Z,30.23
2022-08-04T14:18:26.376Z,30.11
2022-08-04T14:21:11.778Z,30.09
2022-08-04T14:23:50.820Z,29.90
2022-08-04T14:26:18.823Z,29.88
2022-08-04T14:29:25.732Z,29.88
2022-08-04T14:31:34.449Z,29.98
2022-08-04T14:34:09.652Z,30.22
2022-08-04T14:37:13.351Z,30.05
2022-08-04T14:39:40.321Z,30.04
2022-08-04T14:42:07.417Z,30.19
2022-08-04T14:44:56.548Z,30.40
2022-08-04T14:47:52.021Z,30.52
2022-08-04T14:50:32.969Z,30.43
2022-08-04T14:53:17.219Z,30.31
2022-08-04T14:55:46.824Z,30.19
2022-08-04T14:58:34.400Z,30.15
2022-08-04T15:01:09.788Z,30.09
2022-08-04T15:03:50.104Z,29.92
2022-08-04T15:06:29.597Z,29.71
2022-08-04T15:09:03.976Z,29.52
2022-08-04T15:11:34.761Z,29.49
2022-08-04T15:14:06.597Z,29.56
2022-08-04T15:16:35.915Z,29.57
2022-08-04T15:19:02.505Z,29.58
2022-08-04T15:21:30.558Z,29.58
2022-08-04T15:23:58.703Z,29.54
2022-08-04T15:26:44.162Z,29.34
2022-08-04T15:29:59.194Z,29.54
2022-08-04T15:32:32.903Z,29.75
2022-08-04T15:35:06.871Z,29.90
2022-08-04T15:37:42.684Z,30.08
2022-08-04T15:40:18.798Z,30.20
2022-08-04T15:43:02.660Z,30.22
2022-08-04T15:46:02.290Z,30.22
2022-08-04T15:48:39.759Z,30.21
2022-08-04T15:51:15.041Z,29.97
2022-08-04T15:54:02.171Z,29.76
2022-08-04T15:56:28.804Z,29.92
2022-08-04T15:58:58.841Z,29.70
2022-08-04T16:01:27.653Z,29.86
2022-08-04T16:04:00.962Z,29.72
2022-08-04T16:06:29.554Z,29.61
2022-08-04T16:09:01.962Z,29.60
2022-08-04T16:11:37.296Z,29.47
2022-08-04T16:14:07.673Z,29.38
2022-08-04T16:16:37.231Z,29.28
2022-08-04T16:19:24.938Z,28.99
2022-08-04T16:22:03.224Z,28.99
2022-08-04T16:24:31.022Z,28.85
2022-08-04T16:27:08.353Z,28.84
2022-08-04T16:29:48.110Z,28.89
2022-08-04T16:32:23.232Z,28.91
2022-08-04T16:35:04.874Z,28.88
2022-08-04T16:37:43.088Z,28.92
2022-08-04T16:40:37.163Z,29.03
2022-08-04T16:43:08.299Z,28.94
2022-08-04T16:45:46.990Z,28.92
2022-08-04T16:48:18.618Z,28.89
2022-08-04T16:51:14.586Z,28.76
2022-08-04T16:53:52.971Z,28.72
2022-08-04T16:56:33.183Z,28.76
2022-08-04T16:59:07.406Z,28.71
2022-08-04T17:01:34.656Z,28.69
2022-08-04T17:04:06.819Z,28.59
2022-08-04T17:06:42.107Z,28.55
2022-08-04T17:09:19.579Z,28.68
2022-08-04T17:11:48.327Z,28.59
2022-08-04T17:14:21.743Z,28.54
2022-08-04T17:16:48.464Z,28.36
2022-08-04T17:19:24.279Z,28.18
2022-08-04T17:22:03.892Z,28.01
2022-08-04T17:24:36.027Z,27.98
2022-08-04T17:27:04.387Z,28.07
2022-08-04T17:29:49.586Z,28.16
2022-08-04T17:32:17.042Z,28.13
2022-08-04T17:34:48.786Z,28.23
2022-08-04T17:40:18.110Z,27.62
2022-08-04T17:42:50.579Z,26.97
2022-08-04T17:45:53.723Z,27.28
2022-08-04T17:48:11.315Z,27.00
2022-08-04T17:50:54.378Z,26.84
2022-08-04T17:54:01.437Z,26.78
2022-08-04T17:56:51.448Z,26.67
2022-08-04T17:59:56.904Z,26.43
2022-08-04T18:02:13.220Z,26.39
2022-08-04T18:08:38.682Z,26.20
2022-08-04T18:10:55.369Z,26.11
2022-08-04T18:13:29.207Z,26.00
2022-08-04T18:16:05.643Z,25.81
2022-08-04T18:18:33.003Z,25.81
2022-08-04T18:21:04.849Z,25.68
2022-08-04T18:23:32.965Z,25.67
2022-08-04T18:26:01.870Z,25.62
2022-08-04T18:28:30.930Z,25.33
2022-08-04T18:31:02.027Z,25.53
2022-08-04T18:33:40.485Z,25.48
2022-08-04T18:36:34.312Z,25.43
2022-08-04T18:38:59.303Z,25.43
2022-08-04T18:42:01.444Z,25.41
2022-08-04T18:44:29.050Z,25.39
2022-08-04T18:47:19.380Z,25.32
2022-08-04T18:51:00.633Z,25.29
2022-08-04T18:52:33.284Z,25.22
2022-08-04T18:55:01.651Z,25.18
2022-08-04T18:58:00.879Z,25.15
2022-08-04T19:00:19.787Z,24.93
2022-08-04T19:02:47.011Z,25.02
2022-08-04T19:05:17.594Z,24.94
2022-08-04T19:08:02.613Z,24.84
2022-08-04T19:10:32.492Z,24.75
2022-08-04T19:13:03.875Z,24.69
2022-08-04T19:15:50.804Z,24.62
2022-08-04T19:18:19.671Z,24.59
2022-08-04T19:20:49.777Z,24.49
2022-08-04T19:24:10.812Z,24.50
2022-08-04T19:26:06.893Z,24.47
2022-08-04T19:28:37.038Z,24.44
2022-08-04T19:31:08.756Z,24.44
2022-08-04T19:33:58.814Z,24.38
2022-08-04T19:36:28.752Z,24.34
2022-08-04T19:39:01.693Z,24.37
2022-08-04T19:41:30.621Z,24.34
2022-08-04T19:43:58.253Z,24.36
2022-08-04T19:46:28.625Z,24.26
2022-08-04T19:48:58.881Z,24.23
2022-08-04T19:51:27.822Z,24.18
2022-08-04T19:54:02.493Z,24.16
2022-08-04T19:56:39.966Z,24.14
2022-08-04T19:59:10.928Z,24.12
2022-08-04T20:01:44.102Z,24.08
2022-08-04T20:04:12.758Z,24.03
2022-08-04T20:06:39.662Z,23.95
2022-08-04T20:09:24.652Z,23.94
2022-08-04T20:11:55.708Z,23.96
2022-08-04T20:14:32.639Z,23.95
2022-08-04T20:17:03.386Z,23.94
2022-08-04T20:19:38.878Z,23.90
2022-08-04T20:22:06.296Z,23.87
2022-08-04T20:25:00.485Z,23.83
2022-08-04T20:27:51.452Z,23.74
2022-08-04T20:30:15.946Z,23.78
2022-08-04T20:32:52.782Z,23.75
2022-08-04T20:35:25.744Z,23.79
2022-08-04T20:37:55.174Z,23.76
2022-08-04T20:40:26.842Z,23.75
2022-08-04T20:42:57.165Z,23.72
2022-08-04T20:45:24.080Z,23.64
2022-08-04T20:48:10.724Z,23.63
2022-08-04T20:50:37.409Z,23.35
2022-08-04T20:53:06.020Z,23.51
2022-08-04T20:55:55.151Z,23.52
2022-08-04T20:58:27.404Z,23.54
2022-08-04T21:00:55.015Z,23.54
2022-08-04T21:03:38.445Z,23.48
2022-08-04T21:06:08.841Z,23.43
2022-08-04T21:08:37.922Z,23.43
2022-08-04T21:11:06.871Z,23.39
2022-08-04T21:13:50.661Z,23.33
2022-08-04T21:16:55.246Z,23.34
2022-08-04T21:19:05.783Z,23.21
2022-08-04T21:21:40.605Z,23.10
2022-08-04T21:24:10.118Z,23.00
2022-08-04T21:26:40.185Z,22.83
2022-08-04T21:29:11.958Z,22.80
2022-08-04T21:31:50.444Z,22.66
2022-08-04T21:34:38.287Z,22.63
2022-08-04T21:37:09.357Z,22.57
2022-08-04T21:39:50.318Z,22.51
2022-08-04T21:45:14.539Z,22.35
2022-08-04T21:47:46.663Z,22.22
2022-08-04T21:50:19.903Z,22.21
2022-08-04T21:52:49.783Z,22.09
2022-08-04T21:55:16.571Z,22.15
2022-08-04T21:57:43.111Z,22.12
2022-08-04T22:00:10.802Z,22.04
2022-08-04T22:02:44.913Z,21.97
2022-08-04T22:05:11.817Z,21.87
2022-08-04T22:07:50.935Z,21.69
2022-08-04T22:10:32.008Z,21.85
2022-08-04T22:12:59.391Z,21.85
2022-08-04T22:16:04.877Z,21.83
2022-08-04T22:18:16.281Z,21.81
2022-08-04T22:20:46.359Z,21.77
2022-08-04T22:23:16.944Z,21.76
2022-08-04T22:25:55.694Z,21.64
2022-08-04T22:28:28.319Z,21.73
2022-08-04T22:30:55.627Z,21.70
2022-08-04T22:33:22.988Z,21.66
2022-08-04T22:35:50.074Z,21.58
2022-08-04T22:38:25.564Z,21.32
2022-08-04T22:41:05.788Z,21.38
2022-08-04T22:43:34.546Z,21.40
2022-08-04T22:46:07.802Z,21.42
2022-08-04T22:48:38.994Z,21.36
2022-08-04T22:51:07.753Z,21.28
2022-08-04T22:53:35.934Z,21.26
2022-08-04T22:56:10.241Z,21.18
2022-08-04T22:58:45.669Z,21.16
2022-08-04T23:01:17.008Z,21.18
2022-08-04T23:03:50.876Z,21.19
2022-08-04T23:06:24.322Z,21.19
2022-08-04T23:08:51.426Z,21.19
2022-08-04T23:11:22.862Z,21.14
2022-08-04T23:13:49.553Z,21.13
2022-08-04T23:16:17.749Z,21.10
2022-08-04T23:18:48.839Z,20.99
2022-08-04T23:21:16.420Z,21.18
2022-08-04T23:23:45.518Z,21.16
2022-08-04T23:26:27.557Z,21.13
2022-08-04T23:28:57.108Z,21.16
2022-08-04T23:31:24.958Z,21.16
2022-08-04T23:34:07.259Z,21.12
2022-08-04T23:36:35.097Z,21.11
2022-08-04T23:39:06.353Z,21.05
2022-08-04T23:41:53.611Z,21.03
2022-08-04T23:44:25.152Z,21.00
2022-08-04T23:47:02.702Z,20.98
2022-08-04T23:49:43.949Z,20.96
2022-08-04T23:52:28.265Z,20.93
2022-08-04T23:54:58.658Z,20.94
2022-08-04T23:57:31.420Z,20.89
